Weather observations for the past three days for
Evanston-Uinta County Airport - Burns Field
Metric (Imperial)
Date Time (mdt) Wind (kph) Vis. (km) Weather Sky Cond. Temperature (ºC) Relative Humidity Wind Chill (°C) Heat Index (°C) Pressure Precipitation (cm)
Air Dwpt 6 hour altimeter (cm) sea level (mb) 1 hr 3 hr 6 hr
Max. Min.
04 09:53 SW 11 16.09 Fair CLR 13.3 -2.8 33% 76.02 1006.1
04 08:53 S 13 16.09 Fair CLR 9.4 -5 36% 8 76.05 1007.6
04 07:53 S 7 16.09 Mostly Cloudy BKN110 6.7 -6.1 40% 6 76.07 1008.3
04 06:53 S 15 16.09 Fair CLR 3.3 -6.7 48% 0 76.05 1008.0
04 05:53 SW 13 16.09 Fair CLR 1.7 -6.7 9.4 0 54% -2 76.02 1007.4
04 04:53 E 6 16.09 A Few Clouds FEW120 8.3 -6.7 34% 76.02 1006.1
04 03:53 N 7 16.09 Fair CLR 5.6 -7.2 40% 4 76.02 1006.7
04 02:53 SE 9 16.09 Fair CLR 7.2 -8.3 33% 6 76.05 1006.9
04 00:53 SE 9 16.09 Overcast OVC110 8.3 -7.8 31% 7 76.12 1007.6
03 23:53 SE 6 16.09 Fair CLR 9.4 -9.4 17.8 8.9 26% 76.15 1007.9
03 22:53 NE 6 16.09 Fair CLR 11.1 -9.4 23% 76.15 1007.8
03 21:53 N 7 16.09 Fair CLR 11.7 -9.4 22% 76.15 1008.1
03 20:53 NW 11 16.09 Fair CLR 11.1 -9.4 23% 76.15 1008.8
03 19:53 NW 13 16.09 Fair CLR 13.3 -8.3 22% 76.12 1008.9
03 18:53 NW 13 16.09 Fair CLR 15.6 -10 16% 76.17 1009.4
03 17:53 W 20 G 39 16.09 Fair CLR 17.8 -9.4 18.9 15.6 15% 76.17 1009.5
03 16:53 W 20 G 31 16.09 Partly Cloudy SCT110 17.2 -9.4 15% 76.2 1009.8
03 15:53 W 22 16.09 A Few Clouds FEW120 17.2 -10.6 14% 76.25 1009.8
03 14:53 W 24 G 35 16.09 Mostly Cloudy BKN120 16.7 -11.1 14% 76.3 1010.8
03 13:53 Calm 16.09 Partly Cloudy SCT110 16.7 -10 15% 76.35 1011.5
03 12:53 Vrbl 6 16.09 Overcast OVC110 16.7 -10 15% 76.4 1012.3
03 11:53 Vrbl 6 16.09 Fair CLR 15.6 -10.6 16.7 3.3 16% 76.45 1012.4
03 10:53 N 6 16.09 Fair CLR 15.6 -13.9 12% 76.5 1013.0
03 09:53 SW 11 16.09 Fair CLR 13.3 -7.2 24% 76.53 1013.6
03 08:53 SW 9 16.09 Fair CLR 9.4 -6.1 33% 8 76.56 1015.0
03 07:53 S 9 16.09 Fair CLR 6.1 -7.2 38% 4 76.53 1015.2
03 06:53 S 9 16.09 Fair CLR 4.4 -7.8 41% 2 76.5 1014.2
03 05:53 SE 13 16.09 Fair CLR 3.3 -7.8 8.3 3.3 44% 0 76.5 1014.1
03 04:53 SE 9 16.09 Fair CLR 3.3 -7.8 44% 1 76.53 1014.4
03 03:53 S 7 16.09 Fair CLR 5.6 -7.8 38% 4 76.56 1014.3
03 02:53 SE 11 16.09 Fair CLR 5 -7.8 39% 3 76.56 1014.3
03 01:53 SE 13 16.09 Fair CLR 5 -7.8 39% 2 76.56 1015.0
03 00:53 SE 15 16.09 Fair CLR 5.6 -7.2 40% 3 76.58 1015.3
02 23:53 SE 9 16.09 Fair CLR 8.3 -8.3 16.7 7.8 30% 7 76.61 1015.0
02 22:53 SE 9 16.09 Fair CLR 8.3 -7.8 31% 7 76.61 1015.3
02 21:53 N 11 16.09 Fair CLR 9.4 -7.8 29% 8 76.58 1015.3
02 20:53 NW 13 16.09 Fair CLR 9.4 -8.3 28% 8 76.56 1015.8
02 19:53 W 15 16.09 Fair CLR 11.7 -7.2 26% 76.53 1015.5
02 18:53 NW 17 16.09 Fair CLR 15 -7.8 20% 76.5 1015.2
02 17:53 W 19 16.09 Fair CLR 16.1 -8.9 17.8 13.3 17% 76.5 1015.3
02 16:53 SW 15 G 39 16.09 Fair CLR 17.2 -10.6 14% 76.53 1014.4
02 15:53 SW 17 G 35 16.09 Fair CLR 16.7 -11.7 13% 76.61 1015.7
02 14:53 NW 13 16.09 Fair CLR 16.7 -11.1 14% 76.66 1016.6
02 13:53 Vrbl 6 16.09 Fair CLR 15 -11.7 15% 76.71 1017.0
02 12:53 Calm 16.09 Fair CLR 13.9 -11.7 16% 76.76 1018.3
02 11:53 Vrbl 9 16.09 Fair CLR 13.9 -11.1 14.4 0 17% 76.81 1019.1
02 10:53 SW 13 G 26 16.09 Fair CLR 12.8 -10 20% 76.84 1018.9
02 09:53 SW 9 16.09 Fair CLR 10 -10.6 22% 9 76.84 1019.8
02 08:53 Vrbl 6 16.09 Fair CLR 7.2 -8.3 33% 76.84 1020.0
02 07:53 SE 7 16.09 Fair CLR 3.9 -10 36% 2 76.84 1020.3
02 06:53 SE 11 16.09 Fair CLR 1.1 -11.1 40% -2 76.81 1020.3
02 05:53 SE 7 16.09 Fair CLR 0.6 -11.1 6.1 0.6 42% -1 76.81 1019.8
02 04:53 S 7 16.09 Fair CLR 3.3 -11.7 33% 2 76.81 1019.5
02 03:53 SE 9 16.09 Fair CLR 1.7 -10.6 40% -1 76.78 1019.6
02 02:53 SE 11 16.09 Fair CLR 2.2 -11.1 37% -1 76.78 1019.6
02 01:53 E 15 16.09 Fair CLR 4.4 -11.7 30% 1 76.81 1019.8
02 00:53 S 7 16.09 Fair CLR 3.3 -12.2 31% 2 76.81 1020.2
01 23:53 NE 6 16.09 Fair CLR 3.3 -10.6 13.3 3.3 36% 76.78 1020.3
01 22:53 S 7 16.09 Fair CLR 6.1 -12.8 25% 5 76.78 1019.7
01 21:53 E 9 16.09 Fair CLR 6.7 -12.2 25% 5 76.76 1019.4
01 20:53 E 13 16.09 Fair CLR 7.8 -12.2 23% 6 76.68 1019.2
01 19:53 E 15 16.09 Fair CLR 10.6 -11.7 20% 76.66 1018.8
01 18:53 E 19 16.09 Fair CLR 12.2 -13.3 16% 76.63 1018.5
01 17:53 NE 19 G 37 16.09 Fair CLR 13.3 -13.3 13.3 8.3 14% 76.66 1018.2
01 16:53 Calm 16.09 Fair CLR 12.2 -13.3 16% 76.66 1018.6
01 15:53 NE 15 G 28 16.09 Fair CLR 12.8 -12.8 16% 76.68 1018.8
01 14:53 NE 15 G 33 16.09 Fair CLR 11.7 -13.3 16% 76.71 1019.2
01 13:53 Calm 16.09 Fair CLR 10 -13.9 17% 76.73 1020.0
01 12:53 E 13 G 37 16.09 Fair CLR 10 -11.1 22% 8 76.73 1019.9
01 11:53 E 20 G 44 16.09 Fair CLR 8.3 -8.9 8.3 -1.1 29% 5 76.76 1020.6
01 10:53 NE 17 G 39 16.09 Fair CLR 7.2 -9.4 30% 5 76.78 1021.1
Date Time (mdt) Wind (kph) Vis. (km) Weather Sky Cond. Air Dwpt Max. Min. Relative Humidity Wind Chill (°C) Heat Index (°C) altimeter (cm) sea level (mb) 1 hr 3 hr 6 hr
6 hour
Temperature (ºC) Pressure Precipitation (cm)